sensor_id;sensor_type;location;lat;lon;timestamp;P1;durP1;ratioP1;P2;durP2;ratioP2
53718;SDS011;39616;48.872;9.390;2022-11-25T00:00:38;7.55;;;1.75;;
53718;SDS011;39616;48.872;9.390;2022-11-25T00:03:09;6.80;;;1.70;;
53718;SDS011;39616;48.872;9.390;2022-11-25T00:05:39;3.05;;;1.48;;
53718;SDS011;39616;48.872;9.390;2022-11-25T00:08:09;6.55;;;1.92;;
53718;SDS011;39616;48.872;9.390;2022-11-25T00:10:40;4.63;;;2.00;;
53718;SDS011;39616;48.872;9.390;2022-11-25T00:13:10;1.58;;;1.33;;
53718;SDS011;39616;48.872;9.390;2022-11-25T00:15:40;5.45;;;2.13;;
53718;SDS011;39616;48.872;9.390;2022-11-25T00:18:11;4.40;;;1.60;;
53718;SDS011;39616;48.872;9.390;2022-11-25T00:20:41;9.48;;;1.73;;
53718;SDS011;39616;48.872;9.390;2022-11-25T00:23:11;3.92;;;2.08;;
53718;SDS011;39616;48.872;9.390;2022-11-25T00:25:41;8.27;;;1.80;;
53718;SDS011;39616;48.872;9.390;2022-11-25T00:28:12;4.22;;;1.80;;
53718;SDS011;39616;48.872;9.390;2022-11-25T00:30:43;3.45;;;1.88;;
53718;SDS011;39616;48.872;9.390;2022-11-25T00:33:14;5.63;;;1.45;;
53718;SDS011;39616;48.872;9.390;2022-11-25T00:35:44;5.53;;;1.40;;
53718;SDS011;39616;48.872;9.390;2022-11-25T00:38:16;7.70;;;1.70;;
53718;SDS011;39616;48.872;9.390;2022-11-25T00:40:50;10.10;;;1.75;;
53718;SDS011;39616;48.872;9.390;2022-11-25T00:43:41;5.45;;;1.80;;
53718;SDS011;39616;48.872;9.390;2022-11-25T00:46:30;4.65;;;1.70;;
53718;SDS011;39616;48.872;9.390;2022-11-25T00:49:00;6.68;;;1.63;;
53718;SDS011;39616;48.872;9.390;2022-11-25T00:51:30;3.80;;;1.40;;
53718;SDS011;39616;48.872;9.390;2022-11-25T00:54:01;7.50;;;1.50;;
53718;SDS011;39616;48.872;9.390;2022-11-25T00:56:31;3.95;;;1.58;;
53718;SDS011;39616;48.872;9.390;2022-11-25T00:59:02;6.57;;;1.80;;
53718;SDS011;39616;48.872;9.390;2022-11-25T01:01:32;5.43;;;1.30;;
53718;SDS011;39616;48.872;9.390;2022-11-25T01:04:03;6.20;;;1.65;;
53718;SDS011;39616;48.872;9.390;2022-11-25T01:06:35;10.63;;;5.72;;
53718;SDS011;39616;48.872;9.390;2022-11-25T01:09:07;6.78;;;3.47;;
53718;SDS011;39616;48.872;9.390;2022-11-25T01:11:38;14.30;;;3.22;;
53718;SDS011;39616;48.872;9.390;2022-11-25T01:14:09;10.68;;;2.63;;
53718;SDS011;39616;48.872;9.390;2022-11-25T01:16:39;15.25;;;3.28;;
53718;SDS011;39616;48.872;9.390;2022-11-25T01:19:10;9.32;;;3.30;;
53718;SDS011;39616;48.872;9.390;2022-11-25T01:21:41;12.68;;;2.80;;
53718;SDS011;39616;48.872;9.390;2022-11-25T01:24:12;8.77;;;2.42;;
53718;SDS011;39616;48.872;9.390;2022-11-25T01:26:44;11.88;;;3.13;;
53718;SDS011;39616;48.872;9.390;2022-11-25T01:29:15;8.73;;;2.47;;
53718;SDS011;39616;48.872;9.390;2022-11-25T01:31:47;12.52;;;2.63;;
53718;SDS011;39616;48.872;9.390;2022-11-25T01:34:18;12.20;;;2.47;;
53718;SDS011;39616;48.872;9.390;2022-11-25T01:36:51;9.85;;;2.70;;
53718;SDS011;39616;48.872;9.390;2022-11-25T01:39:22;5.00;;;2.20;;
53718;SDS011;39616;48.872;9.390;2022-11-25T01:41:54;8.40;;;3.22;;
53718;SDS011;39616;48.872;9.390;2022-11-25T01:44:27;6.97;;;2.15;;
53718;SDS011;39616;48.872;9.390;2022-11-25T01:52:41;7.85;;;2.22;;
53718;SDS011;39616;48.872;9.390;2022-11-25T01:55:16;8.45;;;2.88;;
53718;SDS011;39616;48.872;9.390;2022-11-25T01:57:52;7.00;;;1.95;;
53718;SDS011;39616;48.872;9.390;2022-11-25T02:00:26;5.35;;;2.58;;
53718;SDS011;39616;48.872;9.390;2022-11-25T02:02:57;8.00;;;2.25;;
53718;SDS011;39616;48.872;9.390;2022-11-25T02:05:36;6.07;;;2.28;;
53718;SDS011;39616;48.872;9.390;2022-11-25T02:08:11;9.73;;;2.17;;
53718;SDS011;39616;48.872;9.390;2022-11-25T02:10:42;8.50;;;2.75;;
53718;SDS011;39616;48.872;9.390;2022-11-25T02:13:13;7.13;;;2.40;;
53718;SDS011;39616;48.872;9.390;2022-11-25T02:15:44;7.47;;;1.95;;
53718;SDS011;39616;48.872;9.390;2022-11-25T02:18:14;12.18;;;2.55;;
53718;SDS011;39616;48.872;9.390;2022-11-25T02:20:45;6.88;;;2.53;;
53718;SDS011;39616;48.872;9.390;2022-11-25T02:25:55;10.80;;;2.58;;
53718;SDS011;39616;48.872;9.390;2022-11-25T02:28:26;6.72;;;2.55;;
53718;SDS011;39616;48.872;9.390;2022-11-25T02:30:59;8.02;;;2.50;;
53718;SDS011;39616;48.872;9.390;2022-11-25T02:33:30;10.90;;;2.72;;
53718;SDS011;39616;48.872;9.390;2022-11-25T02:36:04;6.32;;;2.00;;
53718;SDS011;39616;48.872;9.390;2022-11-25T02:38:46;7.00;;;2.67;;
53718;SDS011;39616;48.872;9.390;2022-11-25T02:41:20;5.85;;;2.38;;
53718;SDS011;39616;48.872;9.390;2022-11-25T02:46:26;8.82;;;2.75;;
53718;SDS011;39616;48.872;9.390;2022-11-25T02:48:57;6.53;;;2.05;;
53718;SDS011;39616;48.872;9.390;2022-11-25T02:51:29;7.82;;;2.42;;
53718;SDS011;39616;48.872;9.390;2022-11-25T02:54:00;6.28;;;2.83;;
53718;SDS011;39616;48.872;9.390;2022-11-25T02:56:32;6.85;;;2.60;;
53718;SDS011;39616;48.872;9.390;2022-11-25T02:59:03;6.68;;;3.05;;
53718;SDS011;39616;48.872;9.390;2022-11-25T03:01:34;11.70;;;2.80;;
53718;SDS011;39616;48.872;9.390;2022-11-25T03:04:05;8.98;;;2.35;;
53718;SDS011;39616;48.872;9.390;2022-11-25T03:06:35;6.22;;;2.67;;
53718;SDS011;39616;48.872;9.390;2022-11-25T03:09:06;10.93;;;2.70;;
53718;SDS011;39616;48.872;9.390;2022-11-25T03:11:36;12.63;;;2.55;;
53718;SDS011;39616;48.872;9.390;2022-11-25T03:14:25;9.18;;;2.85;;
53718;SDS011;39616;48.872;9.390;2022-11-25T03:16:56;11.18;;;2.60;;
53718;SDS011;39616;48.872;9.390;2022-11-25T03:19:26;6.20;;;2.60;;
53718;SDS011;39616;48.872;9.390;2022-11-25T03:21:56;6.68;;;2.90;;
53718;SDS011;39616;48.872;9.390;2022-11-25T03:24:27;6.57;;;1.98;;
53718;SDS011;39616;48.872;9.390;2022-11-25T03:26:57;7.68;;;2.15;;
53718;SDS011;39616;48.872;9.390;2022-11-25T03:29:27;7.03;;;2.58;;
53718;SDS011;39616;48.872;9.390;2022-11-25T03:31:58;9.32;;;2.63;;
53718;SDS011;39616;48.872;9.390;2022-11-25T03:34:28;9.05;;;2.80;;
53718;SDS011;39616;48.872;9.390;2022-11-25T03:36:58;6.68;;;2.30;;
53718;SDS011;39616;48.872;9.390;2022-11-25T03:39:29;9.00;;;3.03;;
53718;SDS011;39616;48.872;9.390;2022-11-25T03:41:59;4.88;;;2.40;;
53718;SDS011;39616;48.872;9.390;2022-11-25T03:44:29;8.95;;;2.13;;
53718;SDS011;39616;48.872;9.390;2022-11-25T03:47:00;4.78;;;2.08;;
53718;SDS011;39616;48.872;9.390;2022-11-25T03:49:30;5.25;;;2.13;;
53718;SDS011;39616;48.872;9.390;2022-11-25T03:52:00;7.43;;;2.22;;
53718;SDS011;39616;48.872;9.390;2022-11-25T03:54:30;4.10;;;2.30;;
53718;SDS011;39616;48.872;9.390;2022-11-25T03:57:01;4.43;;;2.42;;
53718;SDS011;39616;48.872;9.390;2022-11-25T03:59:31;5.68;;;3.00;;
53718;SDS011;39616;48.872;9.390;2022-11-25T04:02:01;7.32;;;2.85;;
53718;SDS011;39616;48.872;9.390;2022-11-25T04:04:32;6.13;;;3.05;;
53718;SDS011;39616;48.872;9.390;2022-11-25T04:07:02;5.63;;;2.40;;
53718;SDS011;39616;48.872;9.390;2022-11-25T04:09:33;6.05;;;2.33;;
53718;SDS011;39616;48.872;9.390;2022-11-25T04:12:03;5.63;;;2.72;;
53718;SDS011;39616;48.872;9.390;2022-11-25T04:14:52;4.90;;;2.17;;
53718;SDS011;39616;48.872;9.390;2022-11-25T04:17:22;7.75;;;3.22;;
53718;SDS011;39616;48.872;9.390;2022-11-25T04:19:53;4.10;;;2.28;;
53718;SDS011;39616;48.872;9.390;2022-11-25T04:22:23;8.75;;;3.85;;
53718;SDS011;39616;48.872;9.390;2022-11-25T04:24:53;4.90;;;2.65;;
53718;SDS011;39616;48.872;9.390;2022-11-25T04:27:24;11.85;;;3.45;;
53718;SDS011;39616;48.872;9.390;2022-11-25T04:29:54;5.68;;;2.60;;
53718;SDS011;39616;48.872;9.390;2022-11-25T04:32:24;9.00;;;2.90;;
53718;SDS011;39616;48.872;9.390;2022-11-25T04:34:55;7.43;;;2.40;;
53718;SDS011;39616;48.872;9.390;2022-11-25T04:37:25;5.90;;;2.60;;
53718;SDS011;39616;48.872;9.390;2022-11-25T04:39:55;9.43;;;3.50;;
53718;SDS011;39616;48.872;9.390;2022-11-25T04:42:26;7.65;;;2.97;;
53718;SDS011;39616;48.872;9.390;2022-11-25T04:47:38;7.85;;;1.80;;
53718;SDS011;39616;48.872;9.390;2022-11-25T04:50:11;8.50;;;1.85;;
53718;SDS011;39616;48.872;9.390;2022-11-25T04:52:44;5.32;;;1.95;;
53718;SDS011;39616;48.872;9.390;2022-11-25T04:55:14;5.90;;;2.13;;
53718;SDS011;39616;48.872;9.390;2022-11-25T04:57:45;6.05;;;2.25;;
53718;SDS011;39616;48.872;9.390;2022-11-25T05:00:15;7.43;;;1.92;;
53718;SDS011;39616;48.872;9.390;2022-11-25T05:02:46;4.10;;;2.42;;
53718;SDS011;39616;48.872;9.390;2022-11-25T05:05:16;6.32;;;1.80;;
53718;SDS011;39616;48.872;9.390;2022-11-25T05:07:47;6.38;;;2.25;;
53718;SDS011;39616;48.872;9.390;2022-11-25T05:10:17;4.22;;;2.38;;
53718;SDS011;39616;48.872;9.390;2022-11-25T05:12:47;6.90;;;1.85;;
53718;SDS011;39616;48.872;9.390;2022-11-25T05:15:18;8.07;;;2.92;;
53718;SDS011;39616;48.872;9.390;2022-11-25T05:17:48;7.65;;;2.92;;
53718;SDS011;39616;48.872;9.390;2022-11-25T05:20:18;7.30;;;3.38;;
53718;SDS011;39616;48.872;9.390;2022-11-25T05:22:49;7.28;;;2.70;;
53718;SDS011;39616;48.872;9.390;2022-11-25T05:25:19;15.65;;;3.47;;
53718;SDS011;39616;48.872;9.390;2022-11-25T05:27:49;8.30;;;3.05;;
53718;SDS011;39616;48.872;9.390;2022-11-25T05:30:20;9.55;;;2.50;;
53718;SDS011;39616;48.872;9.390;2022-11-25T05:32:50;11.30;;;2.42;;
53718;SDS011;39616;48.872;9.390;2022-11-25T05:35:20;7.75;;;2.65;;
53718;SDS011;39616;48.872;9.390;2022-11-25T05:37:51;7.43;;;2.03;;
53718;SDS011;39616;48.872;9.390;2022-11-25T05:40:21;4.28;;;2.00;;
53718;SDS011;39616;48.872;9.390;2022-11-25T05:42:51;6.53;;;2.80;;
53718;SDS011;39616;48.872;9.390;2022-11-25T05:45:21;9.43;;;2.33;;
53718;SDS011;39616;48.872;9.390;2022-11-25T05:47:52;7.95;;;1.80;;
53718;SDS011;39616;48.872;9.390;2022-11-25T05:50:22;9.43;;;2.45;;
53718;SDS011;39616;48.872;9.390;2022-11-25T05:52:52;5.38;;;2.20;;
53718;SDS011;39616;48.872;9.390;2022-11-25T05:55:22;4.72;;;2.05;;
53718;SDS011;39616;48.872;9.390;2022-11-25T05:57:53;4.13;;;1.70;;
53718;SDS011;39616;48.872;9.390;2022-11-25T06:00:23;10.65;;;2.10;;
53718;SDS011;39616;48.872;9.390;2022-11-25T06:02:54;8.88;;;3.22;;
53718;SDS011;39616;48.872;9.390;2022-11-25T06:05:24;20.27;;;6.90;;
53718;SDS011;39616;48.872;9.390;2022-11-25T06:07:54;15.00;;;5.93;;
53718;SDS011;39616;48.872;9.390;2022-11-25T06:10:25;8.32;;;3.33;;
53718;SDS011;39616;48.872;9.390;2022-11-25T06:12:55;8.38;;;3.60;;
53718;SDS011;39616;48.872;9.390;2022-11-25T06:15:25;16.52;;;4.20;;
53718;SDS011;39616;48.872;9.390;2022-11-25T06:17:55;9.18;;;3.47;;
53718;SDS011;39616;48.872;9.390;2022-11-25T06:20:26;8.82;;;3.53;;
53718;SDS011;39616;48.872;9.390;2022-11-25T06:22:56;6.93;;;3.22;;
53718;SDS011;39616;48.872;9.390;2022-11-25T06:25:27;4.10;;;2.58;;
53718;SDS011;39616;48.872;9.390;2022-11-25T06:27:58;7.28;;;2.80;;
53718;SDS011;39616;48.872;9.390;2022-11-25T06:30:29;8.45;;;3.15;;
53718;SDS011;39616;48.872;9.390;2022-11-25T06:32:59;6.80;;;2.75;;
53718;SDS011;39616;48.872;9.390;2022-11-25T06:35:29;9.30;;;3.45;;
53718;SDS011;39616;48.872;9.390;2022-11-25T06:38:00;8.68;;;3.20;;
53718;SDS011;39616;48.872;9.390;2022-11-25T06:40:30;12.20;;;4.78;;
53718;SDS011;39616;48.872;9.390;2022-11-25T06:43:02;12.43;;;4.78;;
53718;SDS011;39616;48.872;9.390;2022-11-25T06:45:33;12.43;;;5.47;;
53718;SDS011;39616;48.872;9.390;2022-11-25T06:48:04;10.95;;;3.47;;
53718;SDS011;39616;48.872;9.390;2022-11-25T06:50:34;10.98;;;4.65;;
53718;SDS011;39616;48.872;9.390;2022-11-25T06:53:04;9.18;;;3.20;;
53718;SDS011;39616;48.872;9.390;2022-11-25T06:55:35;12.68;;;3.72;;
53718;SDS011;39616;48.872;9.390;2022-11-25T06:58:05;9.02;;;3.78;;
53718;SDS011;39616;48.872;9.390;2022-11-25T07:00:36;9.05;;;5.13;;
53718;SDS011;39616;48.872;9.390;2022-11-25T07:03:06;12.65;;;5.80;;
53718;SDS011;39616;48.872;9.390;2022-11-25T07:05:36;9.77;;;5.82;;
53718;SDS011;39616;48.872;9.390;2022-11-25T07:08:06;15.10;;;4.90;;
53718;SDS011;39616;48.872;9.390;2022-11-25T07:10:37;11.35;;;3.30;;
53718;SDS011;39616;48.872;9.390;2022-11-25T07:13:07;10.43;;;3.78;;
53718;SDS011;39616;48.872;9.390;2022-11-25T07:15:37;8.23;;;2.92;;
53718;SDS011;39616;48.872;9.390;2022-11-25T07:18:08;8.85;;;3.00;;
53718;SDS011;39616;48.872;9.390;2022-11-25T07:20:38;6.47;;;2.15;;
53718;SDS011;39616;48.872;9.390;2022-11-25T07:23:08;5.57;;;2.45;;
53718;SDS011;39616;48.872;9.390;2022-11-25T07:25:39;7.22;;;2.13;;
53718;SDS011;39616;48.872;9.390;2022-11-25T07:28:09;9.45;;;2.47;;
53718;SDS011;39616;48.872;9.390;2022-11-25T07:30:39;6.85;;;2.40;;
53718;SDS011;39616;48.872;9.390;2022-11-25T07:33:10;9.73;;;2.08;;
53718;SDS011;39616;48.872;9.390;2022-11-25T07:35:40;7.28;;;2.17;;
53718;SDS011;39616;48.872;9.390;2022-11-25T07:38:10;6.05;;;1.88;;
53718;SDS011;39616;48.872;9.390;2022-11-25T07:40:41;8.95;;;1.63;;
53718;SDS011;39616;48.872;9.390;2022-11-25T07:43:11;6.90;;;1.67;;
53718;SDS011;39616;48.872;9.390;2022-11-25T07:45:41;7.75;;;2.20;;
53718;SDS011;39616;48.872;9.390;2022-11-25T07:48:12;5.57;;;1.92;;
53718;SDS011;39616;48.872;9.390;2022-11-25T07:50:42;3.47;;;1.63;;
53718;SDS011;39616;48.872;9.390;2022-11-25T07:53:12;10.93;;;3.05;;
53718;SDS011;39616;48.872;9.390;2022-11-25T07:55:43;14.52;;;2.55;;
53718;SDS011;39616;48.872;9.390;2022-11-25T07:58:13;13.13;;;3.83;;
53718;SDS011;39616;48.872;9.390;2022-11-25T08:00:43;11.55;;;4.68;;
53718;SDS011;39616;48.872;9.390;2022-11-25T08:03:13;10.45;;;2.95;;
53718;SDS011;39616;48.872;9.390;2022-11-25T08:05:44;12.57;;;3.38;;
53718;SDS011;39616;48.872;9.390;2022-11-25T08:08:14;6.13;;;1.92;;
53718;SDS011;39616;48.872;9.390;2022-11-25T08:10:44;7.20;;;1.42;;
53718;SDS011;39616;48.872;9.390;2022-11-25T08:13:15;6.28;;;1.60;;
53718;SDS011;39616;48.872;9.390;2022-11-25T08:15:45;9.18;;;1.70;;
53718;SDS011;39616;48.872;9.390;2022-11-25T08:18:15;5.60;;;1.40;;
53718;SDS011;39616;48.872;9.390;2022-11-25T08:20:46;10.20;;;2.13;;
53718;SDS011;39616;48.872;9.390;2022-11-25T08:23:16;8.23;;;1.70;;
53718;SDS011;39616;48.872;9.390;2022-11-25T08:25:46;8.25;;;1.80;;
53718;SDS011;39616;48.872;9.390;2022-11-25T08:28:17;4.30;;;1.27;;
53718;SDS011;39616;48.872;9.390;2022-11-25T08:30:47;5.68;;;1.90;;
53718;SDS011;39616;48.872;9.390;2022-11-25T08:33:17;6.28;;;2.00;;
53718;SDS011;39616;48.872;9.390;2022-11-25T08:35:54;5.05;;;2.15;;
53718;SDS011;39616;48.872;9.390;2022-11-25T08:38:25;6.55;;;2.25;;
53718;SDS011;39616;48.872;9.390;2022-11-25T08:40:56;6.22;;;2.70;;
53718;SDS011;39616;48.872;9.390;2022-11-25T08:43:27;3.85;;;2.33;;
53718;SDS011;39616;48.872;9.390;2022-11-25T08:45:57;6.20;;;3.00;;
53718;SDS011;39616;48.872;9.390;2022-11-25T08:48:28;3.75;;;2.13;;
53718;SDS011;39616;48.872;9.390;2022-11-25T08:50:58;5.15;;;2.50;;
53718;SDS011;39616;48.872;9.390;2022-11-25T08:53:28;4.20;;;1.98;;
53718;SDS011;39616;48.872;9.390;2022-11-25T08:55:59;11.25;;;7.15;;
53718;SDS011;39616;48.872;9.390;2022-11-25T08:58:29;9.73;;;3.75;;
53718;SDS011;39616;48.872;9.390;2022-11-25T09:00:59;2.00;;;1.23;;
53718;SDS011;39616;48.872;9.390;2022-11-25T09:03:35;7.53;;;1.75;;
53718;SDS011;39616;48.872;9.390;2022-11-25T09:06:08;5.57;;;1.42;;
53718;SDS011;39616;48.872;9.390;2022-11-25T09:08:42;2.95;;;1.58;;
53718;SDS011;39616;48.872;9.390;2022-11-25T09:11:13;4.15;;;2.60;;
53718;SDS011;39616;48.872;9.390;2022-11-25T09:13:46;4.95;;;3.22;;
53718;SDS011;39616;48.872;9.390;2022-11-25T09:16:16;13.63;;;3.60;;
53718;SDS011;39616;48.872;9.390;2022-11-25T09:18:47;10.38;;;4.38;;
53718;SDS011;39616;48.872;9.390;2022-11-25T09:21:17;10.45;;;5.10;;
53718;SDS011;39616;48.872;9.390;2022-11-25T09:23:49;6.68;;;3.10;;
53718;SDS011;39616;48.872;9.390;2022-11-25T09:28:54;12.45;;;3.95;;
53718;SDS011;39616;48.872;9.390;2022-11-25T09:31:25;11.73;;;4.72;;
53718;SDS011;39616;48.872;9.390;2022-11-25T09:33:55;9.15;;;4.45;;
53718;SDS011;39616;48.872;9.390;2022-11-25T09:36:26;8.15;;;4.95;;
53718;SDS011;39616;48.872;9.390;2022-11-25T09:38:56;13.48;;;5.25;;
53718;SDS011;39616;48.872;9.390;2022-11-25T09:56:13;10.48;;;3.80;;
53718;SDS011;39616;48.872;9.390;2022-11-25T09:58:47;6.45;;;3.17;;
53718;SDS011;39616;48.872;9.390;2022-11-25T10:01:23;6.18;;;3.13;;
53718;SDS011;39616;48.872;9.390;2022-11-25T10:03:56;7.20;;;3.80;;
53718;SDS011;39616;48.872;9.390;2022-11-25T10:06:40;7.88;;;3.90;;
53718;SDS011;39616;48.872;9.390;2022-11-25T10:09:18;2.83;;;1.70;;
53718;SDS011;39616;48.872;9.390;2022-11-25T10:11:55;3.15;;;1.40;;
53718;SDS011;39616;48.872;9.390;2022-11-25T10:17:34;2.40;;;0.90;;
53718;SDS011;39616;48.872;9.390;2022-11-25T10:20:12;4.45;;;0.98;;
53718;SDS011;39616;48.872;9.390;2022-11-25T10:22:49;2.17;;;1.17;;
53718;SDS011;39616;48.872;9.390;2022-11-25T10:25:24;5.68;;;1.05;;
53718;SDS011;39616;48.872;9.390;2022-11-25T10:27:59;4.75;;;0.90;;
53718;SDS011;39616;48.872;9.390;2022-11-25T10:30:34;2.55;;;0.80;;
53718;SDS011;39616;48.872;9.390;2022-11-25T10:35:52;2.72;;;0.90;;
53718;SDS011;39616;48.872;9.390;2022-11-25T10:38:28;2.37;;;1.03;;
53718;SDS011;39616;48.872;9.390;2022-11-25T10:41:06;5.85;;;1.23;;
53718;SDS011;39616;48.872;9.390;2022-11-25T10:43:39;3.50;;;0.90;;
53718;SDS011;39616;48.872;9.390;2022-11-25T10:49:00;3.33;;;1.00;;
53718;SDS011;39616;48.872;9.390;2022-11-25T10:52:08;1.25;;;1.00;;
53718;SDS011;39616;48.872;9.390;2022-11-25T10:54:41;1.98;;;1.00;;
53718;SDS011;39616;48.872;9.390;2022-11-25T10:57:26;2.75;;;1.00;;
53718;SDS011;39616;48.872;9.390;2022-11-25T10:59:59;4.20;;;1.20;;
53718;SDS011;39616;48.872;9.390;2022-11-25T11:02:39;5.63;;;1.20;;
53718;SDS011;39616;48.872;9.390;2022-11-25T11:07:41;3.05;;;1.00;;
53718;SDS011;39616;48.872;9.390;2022-11-25T11:12:54;4.75;;;1.25;;
53718;SDS011;39616;48.872;9.390;2022-11-25T11:18:29;2.08;;;1.13;;
53718;SDS011;39616;48.872;9.390;2022-11-25T11:21:29;4.18;;;1.02;;
53718;SDS011;39616;48.872;9.390;2022-11-25T11:24:01;3.03;;;1.10;;
53718;SDS011;39616;48.872;9.390;2022-11-25T11:26:33;2.75;;;1.10;;
53718;SDS011;39616;48.872;9.390;2022-11-25T11:29:15;5.57;;;1.60;;
53718;SDS011;39616;48.872;9.390;2022-11-25T11:31:47;7.55;;;2.97;;
53718;SDS011;39616;48.872;9.390;2022-11-25T11:37:36;10.27;;;2.25;;
53718;SDS011;39616;48.872;9.390;2022-11-25T11:40:22;6.25;;;2.28;;
53718;SDS011;39616;48.872;9.390;2022-11-25T11:43:15;7.97;;;3.08;;
53718;SDS011;39616;48.872;9.390;2022-11-25T11:48:55;10.65;;;6.20;;
53718;SDS011;39616;48.872;9.390;2022-11-25T11:51:51;13.90;;;4.43;;
53718;SDS011;39616;48.872;9.390;2022-11-25T11:54:33;8.48;;;4.85;;
53718;SDS011;39616;48.872;9.390;2022-11-25T11:57:06;12.70;;;6.80;;
53718;SDS011;39616;48.872;9.390;2022-11-25T11:59:53;13.65;;;7.32;;
53718;SDS011;39616;48.872;9.390;2022-11-25T12:02:35;8.20;;;3.47;;
53718;SDS011;39616;48.872;9.390;2022-11-25T12:05:19;11.05;;;4.50;;
53718;SDS011;39616;48.872;9.390;2022-11-25T12:10:55;7.90;;;4.55;;
53718;SDS011;39616;48.872;9.390;2022-11-25T12:13:41;10.23;;;5.40;;
53718;SDS011;39616;48.872;9.390;2022-11-25T12:16:34;7.47;;;4.15;;
53718;SDS011;39616;48.872;9.390;2022-11-25T12:22:18;11.75;;;5.57;;
53718;SDS011;39616;48.872;9.390;2022-11-25T12:27:58;7.88;;;3.85;;
53718;SDS011;39616;48.872;9.390;2022-11-25T12:30:50;7.70;;;4.35;;
53718;SDS011;39616;48.872;9.390;2022-11-25T12:33:48;6.47;;;4.50;;
53718;SDS011;39616;48.872;9.390;2022-11-25T12:36:32;14.50;;;4.13;;
53718;SDS011;39616;48.872;9.390;2022-11-25T12:42:01;11.30;;;4.78;;
53718;SDS011;39616;48.872;9.390;2022-11-25T12:47:29;10.85;;;4.40;;
53718;SDS011;39616;48.872;9.390;2022-11-25T12:50:00;11.98;;;3.47;;
53718;SDS011;39616;48.872;9.390;2022-11-25T12:55:25;11.32;;;5.10;;
53718;SDS011;39616;48.872;9.390;2022-11-25T13:00:59;9.85;;;6.18;;
53718;SDS011;39616;48.872;9.390;2022-11-25T13:07:04;9.48;;;5.35;;
53718;SDS011;39616;48.872;9.390;2022-11-25T13:09:56;12.90;;;5.30;;
53718;SDS011;39616;48.872;9.390;2022-11-25T13:12:39;10.77;;;5.35;;
53718;SDS011;39616;48.872;9.390;2022-11-25T13:18:14;13.60;;;5.73;;
53718;SDS011;39616;48.872;9.390;2022-11-25T13:20:54;10.68;;;5.70;;
53718;SDS011;39616;48.872;9.390;2022-11-25T13:23:26;11.30;;;5.47;;
53718;SDS011;39616;48.872;9.390;2022-11-25T13:32:02;17.83;;;5.28;;
53718;SDS011;39616;48.872;9.390;2022-11-25T13:34:36;10.18;;;3.80;;
53718;SDS011;39616;48.872;9.390;2022-11-25T13:42:52;7.50;;;4.25;;
53718;SDS011;39616;48.872;9.390;2022-11-25T13:45:29;9.93;;;4.22;;
53718;SDS011;39616;48.872;9.390;2022-11-25T13:48:05;8.95;;;3.92;;
53718;SDS011;39616;48.872;9.390;2022-11-25T13:50:48;8.40;;;3.73;;
53718;SDS011;39616;48.872;9.390;2022-11-25T13:55:53;8.57;;;5.03;;
53718;SDS011;39616;48.872;9.390;2022-11-25T13:59:17;13.98;;;4.82;;
53718;SDS011;39616;48.872;9.390;2022-11-25T14:04:16;8.57;;;4.95;;
53718;SDS011;39616;48.872;9.390;2022-11-25T14:15:43;12.45;;;5.95;;
53718;SDS011;39616;48.872;9.390;2022-11-25T14:18:57;8.43;;;4.55;;
53718;SDS011;39616;48.872;9.390;2022-11-25T14:34:47;10.40;;;3.10;;
53718;SDS011;39616;48.872;9.390;2022-11-25T14:37:28;9.40;;;2.88;;
53718;SDS011;39616;48.872;9.390;2022-11-25T14:40:11;8.88;;;3.30;;
53718;SDS011;39616;48.872;9.390;2022-11-25T14:42:48;6.60;;;2.38;;
53718;SDS011;39616;48.872;9.390;2022-11-25T14:45:26;8.77;;;3.05;;
53718;SDS011;39616;48.872;9.390;2022-11-25T14:48:17;9.98;;;3.00;;
53718;SDS011;39616;48.872;9.390;2022-11-25T14:51:00;9.98;;;2.97;;
53718;SDS011;39616;48.872;9.390;2022-11-25T14:53:43;10.05;;;3.28;;
53718;SDS011;39616;48.872;9.390;2022-11-25T14:56:16;8.75;;;2.67;;
53718;SDS011;39616;48.872;9.390;2022-11-25T14:58:52;7.53;;;3.08;;
53718;SDS011;39616;48.872;9.390;2022-11-25T15:01:25;8.63;;;3.50;;
53718;SDS011;39616;48.872;9.390;2022-11-25T15:06:55;8.45;;;2.55;;
53718;SDS011;39616;48.872;9.390;2022-11-25T15:09:31;8.65;;;3.50;;
53718;SDS011;39616;48.872;9.390;2022-11-25T15:12:11;9.40;;;3.38;;
53718;SDS011;39616;48.872;9.390;2022-11-25T15:14:52;12.52;;;2.80;;
53718;SDS011;39616;48.872;9.390;2022-11-25T15:19:58;8.95;;;3.28;;
53718;SDS011;39616;48.872;9.390;2022-11-25T15:22:32;9.50;;;3.03;;
53718;SDS011;39616;48.872;9.390;2022-11-25T15:25:06;8.25;;;2.35;;
53718;SDS011;39616;48.872;9.390;2022-11-25T15:27:43;9.13;;;2.60;;
53718;SDS011;39616;48.872;9.390;2022-11-25T15:30:19;11.65;;;2.33;;
53718;SDS011;39616;48.872;9.390;2022-11-25T15:32:51;12.15;;;2.45;;
53718;SDS011;39616;48.872;9.390;2022-11-25T15:35:23;5.32;;;1.85;;
53718;SDS011;39616;48.872;9.390;2022-11-25T15:37:55;8.68;;;2.05;;
53718;SDS011;39616;48.872;9.390;2022-11-25T15:40:33;6.20;;;1.83;;
53718;SDS011;39616;48.872;9.390;2022-11-25T15:43:17;13.60;;;2.47;;
53718;SDS011;39616;48.872;9.390;2022-11-25T15:45:53;5.60;;;2.25;;
53718;SDS011;39616;48.872;9.390;2022-11-25T15:48:27;8.30;;;2.28;;
53718;SDS011;39616;48.872;9.390;2022-11-25T15:53:35;7.97;;;2.72;;
53718;SDS011;39616;48.872;9.390;2022-11-25T15:56:08;5.22;;;2.17;;
53718;SDS011;39616;48.872;9.390;2022-11-25T15:58:42;6.68;;;3.10;;
53718;SDS011;39616;48.872;9.390;2022-11-25T16:03:46;10.65;;;1.98;;
53718;SDS011;39616;48.872;9.390;2022-11-25T16:08:59;10.38;;;1.88;;
53718;SDS011;39616;48.872;9.390;2022-11-25T16:11:43;6.95;;;1.50;;
53718;SDS011;39616;48.872;9.390;2022-11-25T16:14:21;7.80;;;1.85;;
53718;SDS011;39616;48.872;9.390;2022-11-25T16:16:59;9.38;;;1.77;;
53718;SDS011;39616;48.872;9.390;2022-11-25T16:19:32;14.50;;;2.38;;
53718;SDS011;39616;48.872;9.390;2022-11-25T16:22:10;7.90;;;1.65;;
53718;SDS011;39616;48.872;9.390;2022-11-25T16:24:48;7.18;;;1.88;;
53718;SDS011;39616;48.872;9.390;2022-11-25T16:27:25;8.95;;;2.50;;
53718;SDS011;39616;48.872;9.390;2022-11-25T16:32:34;10.10;;;1.95;;
53718;SDS011;39616;48.872;9.390;2022-11-25T16:35:15;7.72;;;1.63;;
53718;SDS011;39616;48.872;9.390;2022-11-25T16:37:48;8.40;;;1.90;;
53718;SDS011;39616;48.872;9.390;2022-11-25T16:40:18;16.30;;;5.55;;
53718;SDS011;39616;48.872;9.390;2022-11-25T16:42:49;11.40;;;1.73;;
53718;SDS011;39616;48.872;9.390;2022-11-25T16:45:21;40.63;;;15.75;;
53718;SDS011;39616;48.872;9.390;2022-11-25T16:47:55;24.90;;;10.98;;
53718;SDS011;39616;48.872;9.390;2022-11-25T16:50:26;29.17;;;10.70;;
53718;SDS011;39616;48.872;9.390;2022-11-25T16:52:56;7.63;;;2.97;;
53718;SDS011;39616;48.872;9.390;2022-11-25T16:55:26;16.08;;;4.30;;
53718;SDS011;39616;48.872;9.390;2022-11-25T16:57:57;13.43;;;3.15;;
53718;SDS011;39616;48.872;9.390;2022-11-25T17:00:27;9.85;;;3.80;;
53718;SDS011;39616;48.872;9.390;2022-11-25T17:02:58;8.15;;;2.38;;
53718;SDS011;39616;48.872;9.390;2022-11-25T17:05:28;10.57;;;2.83;;
53718;SDS011;39616;48.872;9.390;2022-11-25T17:07:59;11.00;;;2.35;;
53718;SDS011;39616;48.872;9.390;2022-11-25T17:10:30;8.38;;;2.38;;
53718;SDS011;39616;48.872;9.390;2022-11-25T17:13:00;5.72;;;1.77;;
53718;SDS011;39616;48.872;9.390;2022-11-25T17:15:32;10.50;;;2.33;;
53718;SDS011;39616;48.872;9.390;2022-11-25T17:18:05;8.23;;;2.70;;
53718;SDS011;39616;48.872;9.390;2022-11-25T17:20:36;10.43;;;2.10;;
53718;SDS011;39616;48.872;9.390;2022-11-25T17:23:14;9.15;;;3.15;;
53718;SDS011;39616;48.872;9.390;2022-11-25T17:25:46;12.38;;;2.50;;
53718;SDS011;39616;48.872;9.390;2022-11-25T17:28:18;7.80;;;3.20;;
53718;SDS011;39616;48.872;9.390;2022-11-25T17:30:50;7.53;;;3.40;;
53718;SDS011;39616;48.872;9.390;2022-11-25T17:33:20;9.27;;;3.75;;
53718;SDS011;39616;48.872;9.390;2022-11-25T17:35:50;10.02;;;4.35;;